createdAt,value
2018-11-26T00:00:03.398Z,97.90
2018-11-26T00:05:12.573Z,107.37
2018-11-26T00:10:21.886Z,96.65
2018-11-26T00:15:30.972Z,96.21
2018-11-26T00:20:40.468Z,96.18
2018-11-26T00:25:49.727Z,97.46
2018-11-26T00:30:59.066Z,87.12
2018-11-26T00:36:08.153Z,82.60
2018-11-26T00:41:17.503Z,89.22
2018-11-26T00:46:26.658Z,80.18
2018-11-26T00:51:35.845Z,75.24
2018-11-26T00:56:45.022Z,78.94
2018-11-26T01:01:54.313Z,76.48
2018-11-26T01:07:03.556Z,77.30
2018-11-26T01:12:12.851Z,71.67
2018-11-26T01:17:21.921Z,70.67
2018-11-26T01:22:31.171Z,77.25
2018-11-26T01:27:40.315Z,72.89
2018-11-26T01:32:49.579Z,77.66
2018-11-26T01:37:58.679Z,74.94
2018-11-26T01:43:08.110Z,81.08
2018-11-26T01:48:17.256Z,69.95
2018-11-26T01:53:26.621Z,70.88
2018-11-26T01:58:35.681Z,81.29
2018-11-26T02:03:44.935Z,73.59
2018-11-26T02:08:54.021Z,72.81
2018-11-26T02:14:03.333Z,68.53
2018-11-26T02:19:12.453Z,73.23
2018-11-26T02:24:21.766Z,71.92
2018-11-26T02:29:30.883Z,68.19
2018-11-26T02:34:40.198Z,70.41
2018-11-26T02:39:49.382Z,71.48
2018-11-26T02:44:57.287Z,67.62
2018-11-26T02:50:06.384Z,68.64
2018-11-26T02:55:14.136Z,70.54
2018-11-26T03:00:23.371Z,71.38
2018-11-26T03:05:32.652Z,72.55
2018-11-26T03:10:41.871Z,65.92
2018-11-26T03:15:50.980Z,70.66
2018-11-26T03:21:00.257Z,65.77
2018-11-26T03:26:09.372Z,73.05
2018-11-26T03:31:18.612Z,70.38
2018-11-26T03:36:27.687Z,72.53
2018-11-26T03:41:36.800Z,66.75
2018-11-26T03:46:46.055Z,67.16
2018-11-26T03:51:55.307Z,68.47
2018-11-26T03:57:04.400Z,66.77
2018-11-26T04:02:13.689Z,72.79
2018-11-26T04:07:22.773Z,69.59
2018-11-26T04:12:32.001Z,73.63
2018-11-26T04:17:41.172Z,74.89
2018-11-26T04:22:50.450Z,72.25
2018-11-26T04:27:59.568Z,70.06
2018-11-26T04:33:08.801Z,68.98
2018-11-26T04:38:17.884Z,68.24
2018-11-26T04:43:27.186Z,70.92
2018-11-26T04:48:36.388Z,74.64
2018-11-26T04:53:45.747Z,72.03
2018-11-26T04:58:54.851Z,78.34
2018-11-26T05:04:03.988Z,70.91
2018-11-26T05:09:13.085Z,72.77
2018-11-26T05:14:22.390Z,79.85
2018-11-26T05:19:31.486Z,73.80
2018-11-26T05:24:40.785Z,79.33
2018-11-26T05:29:49.911Z,79.67
2018-11-26T05:34:59.132Z,73.19
2018-11-26T05:40:08.229Z,76.48
2018-11-26T05:45:17.596Z,78.30
2018-11-26T05:50:26.687Z,76.80
2018-11-26T05:55:35.992Z,76.41
2018-11-26T06:00:45.197Z,75.69
2018-11-26T06:05:54.501Z,72.70
2018-11-26T06:11:03.855Z,71.15
2018-11-26T06:16:12.984Z,70.20
2018-11-26T06:21:22.133Z,71.05
2018-11-26T06:26:31.472Z,69.70
2018-11-26T06:31:40.593Z,64.78
2018-11-26T06:36:49.948Z,71.30
2018-11-26T06:41:59.048Z,69.91
2018-11-26T06:47:08.192Z,77.25
2018-11-26T06:52:17.312Z,74.44
2018-11-26T06:57:26.736Z,67.52
2018-11-26T07:02:35.868Z,68.92
2018-11-26T07:07:45.196Z,74.63
2018-11-26T07:12:54.288Z,71.11
2018-11-26T07:18:03.605Z,69.60
2018-11-26T07:23:12.733Z,73.71
2018-11-26T07:28:21.980Z,71.56
2018-11-26T07:33:31.093Z,69.96
2018-11-26T07:38:40.440Z,74.45
2018-11-26T07:43:49.554Z,73.17
2018-11-26T07:48:58.881Z,69.80
2018-11-26T07:54:07.979Z,69.02
2018-11-26T07:59:17.200Z,66.09
2018-11-26T08:04:26.285Z,65.69
2018-11-26T08:09:35.559Z,67.93
2018-11-26T08:14:44.718Z,71.94
2018-11-26T08:19:53.999Z,68.66
2018-11-26T08:25:03.177Z,71.20
2018-11-26T08:30:12.466Z,68.87
2018-11-26T08:35:21.560Z,66.59
2018-11-26T08:40:30.898Z,73.57
2018-11-26T08:45:40.020Z,74.11
2018-11-26T08:50:49.305Z,68.64
2018-11-26T08:55:58.480Z,76.09
2018-11-26T09:01:07.796Z,70.53
2018-11-26T09:06:17.056Z,80.09
2018-11-26T09:11:26.355Z,73.91
2018-11-26T09:16:35.470Z,68.80
2018-11-26T09:21:44.801Z,75.04
2018-11-26T09:26:53.928Z,99.19
2018-11-26T09:32:03.151Z,103.50
2018-11-26T09:37:12.232Z,75.25
2018-11-26T09:42:21.461Z,72.54
2018-11-26T09:47:30.581Z,68.77
2018-11-26T09:52:39.972Z,68.11
2018-11-26T09:57:49.075Z,77.88
2018-11-26T10:02:58.360Z,92.28
2018-11-26T10:08:07.528Z,73.56
2018-11-26T10:13:16.814Z,79.19
2018-11-26T10:18:25.928Z,71.64
2018-11-26T10:23:35.180Z,76.63
2018-11-26T10:28:44.267Z,69.98
2018-11-26T10:33:53.556Z,67.53
2018-11-26T10:39:02.701Z,68.95
2018-11-26T10:44:12.066Z,68.23
2018-11-26T10:49:21.187Z,73.97
2018-11-26T10:54:30.500Z,70.96
2018-11-26T10:59:39.609Z,66.68
2018-11-26T11:04:48.902Z,65.04
2018-11-26T11:09:58.029Z,66.96
2018-11-26T11:15:07.408Z,67.84
2018-11-26T11:20:16.535Z,67.87
2018-11-26T11:25:26.240Z,69.43
2018-11-26T11:30:34.499Z,62.86
2018-11-26T11:35:43.753Z,63.62
2018-11-26T11:40:52.915Z,62.18
2018-11-26T11:46:02.261Z,58.65
2018-11-26T11:51:11.433Z,61.23
2018-11-26T11:56:20.593Z,60.55
2018-11-26T12:01:29.718Z,58.71
2018-11-26T12:06:39.126Z,65.64
2018-11-26T12:11:48.230Z,59.49
2018-11-26T12:16:57.469Z,60.41
2018-11-26T12:22:06.600Z,61.67
2018-11-26T12:27:15.835Z,56.53
2018-11-26T12:32:24.955Z,61.47
2018-11-26T12:37:34.238Z,54.58
2018-11-26T12:42:43.369Z,55.97
2018-11-26T12:47:52.633Z,58.77
2018-11-26T12:53:01.862Z,59.75
2018-11-26T12:58:11.119Z,60.34
2018-11-26T13:03:20.216Z,55.38
2018-11-26T13:08:29.547Z,58.69
2018-11-26T13:13:38.671Z,61.88
2018-11-26T13:18:47.961Z,55.60
2018-11-26T13:23:57.073Z,58.64
2018-11-26T13:29:06.475Z,54.50
2018-11-26T13:34:15.605Z,55.75
2018-11-26T13:39:24.756Z,60.91
2018-11-26T13:44:33.907Z,60.08
2018-11-26T13:49:43.267Z,62.39
2018-11-26T13:54:52.398Z,58.01
2018-11-26T14:00:01.751Z,64.40
2018-11-26T14:05:10.890Z,61.26
2018-11-26T14:10:20.154Z,60.84
2018-11-26T14:15:29.334Z,58.71
2018-11-26T14:20:38.672Z,55.01
2018-11-26T14:25:47.829Z,60.84
2018-11-26T14:30:57.023Z,60.17
2018-11-26T14:36:06.111Z,55.43
2018-11-26T14:41:15.459Z,56.71
2018-11-26T14:46:24.568Z,60.75
2018-11-26T14:51:33.905Z,58.60
2018-11-26T14:56:43.085Z,61.68
2018-11-26T15:01:52.318Z,61.85
2018-11-26T15:07:01.425Z,61.54
2018-11-26T15:12:10.694Z,59.56
2018-11-26T15:17:19.833Z,62.01
2018-11-26T15:22:29.024Z,62.24
2018-11-26T15:27:38.206Z,59.16
2018-11-26T15:32:47.425Z,59.98
2018-11-26T15:37:56.519Z,57.88
2018-11-26T15:43:05.922Z,59.65
2018-11-26T15:48:15.197Z,54.03
2018-11-26T15:53:24.421Z,54.48
2018-11-26T15:58:33.572Z,52.65
2018-11-26T16:03:42.781Z,53.18
2018-11-26T16:08:51.929Z,52.38
2018-11-26T16:14:01.248Z,47.58
2018-11-26T16:19:10.425Z,44.63
2018-11-26T16:24:19.617Z,45.25
2018-11-26T16:29:28.760Z,44.57
2018-11-26T16:34:38.629Z,46.74
2018-11-26T16:39:47.816Z,46.10
2018-11-26T16:44:57.277Z,44.94
2018-11-26T16:50:06.427Z,45.62
2018-11-26T16:55:16.326Z,41.80
2018-11-26T17:00:25.449Z,40.85
2018-11-26T17:05:34.729Z,42.00
2018-11-26T17:10:43.880Z,44.84
2018-11-26T17:15:53.107Z,41.21
2018-11-26T17:21:02.212Z,41.04
2018-11-26T17:26:11.553Z,41.89
2018-11-26T17:31:21.588Z,46.38
2018-11-26T17:36:20.830Z,42.74
2018-11-26T17:41:30.397Z,45.14
2018-11-26T17:46:39.718Z,43.78
2018-11-26T17:51:48.850Z,44.90
2018-11-26T17:56:58.352Z,47.33
2018-11-26T18:02:07.929Z,45.43
2018-11-26T18:07:17.167Z,42.16
2018-11-26T18:12:26.416Z,45.40
2018-11-26T18:17:35.752Z,43.21
2018-11-26T18:22:44.833Z,42.89
2018-11-26T18:27:54.089Z,41.11
2018-11-26T18:33:03.194Z,44.48
2018-11-26T18:38:12.702Z,41.63
2018-11-26T18:43:21.827Z,45.61
2018-11-26T18:48:31.373Z,44.17
2018-11-26T18:53:40.493Z,47.91
2018-11-26T18:58:50.267Z,43.98
2018-11-26T19:03:59.436Z,43.90
2018-11-26T19:09:08.809Z,41.17
2018-11-26T19:14:17.920Z,43.02
2018-11-26T19:19:27.575Z,43.46
2018-11-26T19:24:36.794Z,44.78
2018-11-26T19:29:47.308Z,42.56
2018-11-26T19:34:46.408Z,42.71
2018-11-26T19:39:55.957Z,42.10
2018-11-26T19:45:05.438Z,42.62
2018-11-26T19:50:14.930Z,44.85
2018-11-26T19:55:24.099Z,47.55
2018-11-26T20:00:33.194Z,44.80
2018-11-26T20:05:42.440Z,46.68
2018-11-26T20:10:51.603Z,45.40
2018-11-26T20:16:01.408Z,46.89
2018-11-26T20:21:10.483Z,46.63
2018-11-26T20:26:19.755Z,43.85
2018-11-26T20:31:29.167Z,43.79
2018-11-26T20:36:38.525Z,44.24
2018-11-26T20:41:47.787Z,43.44
2018-11-26T20:46:57.279Z,44.17
2018-11-26T20:52:06.566Z,44.78
2018-11-26T20:57:16.029Z,45.70
2018-11-26T21:02:25.304Z,81.04
2018-11-26T21:07:34.585Z,48.24
2018-11-26T21:12:43.857Z,45.45
2018-11-26T21:17:52.944Z,42.76
2018-11-26T21:23:02.179Z,52.91
2018-11-26T21:28:11.271Z,42.22
2018-11-26T21:33:20.661Z,44.76
2018-11-26T21:38:29.759Z,42.21
2018-11-26T21:43:39.000Z,45.13
2018-11-26T21:48:48.128Z,42.01
2018-11-26T21:53:57.549Z,41.85
2018-11-26T21:59:06.676Z,42.65
2018-11-26T22:04:15.965Z,40.21
2018-11-26T22:09:25.091Z,37.54
2018-11-26T22:14:34.382Z,40.91
2018-11-26T22:19:43.467Z,38.30
2018-11-26T22:24:52.586Z,35.00
2018-11-26T22:30:01.687Z,40.16
2018-11-26T22:35:10.946Z,39.75
2018-11-26T22:40:20.359Z,37.98
2018-11-26T22:45:29.629Z,33.91
2018-11-26T22:50:38.720Z,36.13
2018-11-26T22:55:47.945Z,37.36
2018-11-26T23:00:57.109Z,36.38
2018-11-26T23:06:06.404Z,34.47
2018-11-26T23:11:15.497Z,34.93
2018-11-26T23:16:24.837Z,34.44
2018-11-26T23:21:33.951Z,38.06
2018-11-26T23:26:43.397Z,36.23
2018-11-26T23:31:52.478Z,36.68
2018-11-26T23:37:01.795Z,37.34
2018-11-26T23:42:11.455Z,35.96
2018-11-26T23:47:21.228Z,35.48
2018-11-26T23:52:30.326Z,36.04
2018-11-26T23:57:39.859Z,34.68
